»·PEaware :: SKY350 KPRC-KHII

SKY350 :: KPRC-KHII

FLIGHT INFORMATION

Flight Status: Arrived
Operator:
Sky High Charters
More flights by this operator :: More flights under this callsign
Pilot: Jacek M. (26729)
Aircraft: BEECH AIRCRAFT BONANZA
(BE35)
More flights by this aircraft type
Origin: KPRC Love
United States
Destination: KHII Lake Havasu City
United States
More flights between these airports :: More routes between these airports
Route: +WNSKI2 MUMTE V12 EED
File this flight plan on PilotEdge
Remarks: +CW / SKY HIGH CHARTERS - SCENARIO 8 - leg 1
Altitude:
(Current/Filed)
12,000ft
Speed:
(Current/Filed)
220kts
Departed: 11-Apr-20 10:31 AM
Arrived: 11-Apr-20 11:19 AM
Distance/Time
Traveled:
96nm/0:48
Distance/Time
To Go:
Arrived

Flight Plot

Page will automatically refresh every two minutes.

Flight plan parsing failed; only flown route is shown


Map Options




Map Legend


Flown Route
Filed Route
Departure Airport
Arrival Airport
Navaid (VOR, NDB)
Fix

Horizontal Profiles

Position Reports

Time Latitude Longitude Heading Altitude Ground
Speed
11-Apr-20 09:46 34.650202 -112.427219 221 5049ft 0kts
11-Apr-20 09:47 34.650202 -112.427219 221 5049ft 0kts
11-Apr-20 09:48 34.650202 -112.427219 221 5049ft 0kts
11-Apr-20 09:49 34.650202 -112.427219 221 5049ft 0kts
11-Apr-20 09:50 34.650202 -112.427219 221 5049ft 0kts
11-Apr-20 09:51 34.650202 -112.427219 221 5049ft 0kts
11-Apr-20 09:52 34.650201 -112.427220 221 5049ft 0kts
11-Apr-20 09:53 34.650201 -112.427220 221 5049ft 0kts
11-Apr-20 09:54 34.650201 -112.427220 221 5049ft 0kts
11-Apr-20 09:55 34.650201 -112.427220 221 5049ft 0kts
11-Apr-20 09:56 34.650201 -112.427220 221 5049ft 0kts
11-Apr-20 09:57 34.650201 -112.427220 221 5049ft 0kts
11-Apr-20 09:58 34.650201 -112.427220 221 5049ft 0kts
11-Apr-20 09:59 34.650200 -112.427221 221 5049ft 0kts
11-Apr-20 10:00 34.650200 -112.427221 221 5049ft 0kts
11-Apr-20 10:01 34.650200 -112.427221 221 5049ft 0kts
11-Apr-20 10:02 34.650200 -112.427221 220 5049ft 0kts
11-Apr-20 10:03 34.650200 -112.427221 220 5049ft 0kts
11-Apr-20 10:04 34.650200 -112.427221 220 5049ft 0kts
11-Apr-20 10:05 34.650200 -112.427222 220 5049ft 0kts
11-Apr-20 10:06 34.650200 -112.427222 220 5049ft 0kts
11-Apr-20 10:07 34.650199 -112.427222 220 5049ft 0kts
11-Apr-20 10:08 34.650199 -112.427222 220 5049ft 0kts
11-Apr-20 10:09 34.650199 -112.427222 220 5049ft 0kts
11-Apr-20 10:10 34.650199 -112.427222 220 5049ft 0kts
11-Apr-20 10:11 34.650199 -112.427222 220 5049ft 0kts
11-Apr-20 10:12 34.650199 -112.427222 220 5049ft 0kts
11-Apr-20 10:13 34.650199 -112.427222 220 5049ft 0kts
11-Apr-20 10:14 34.650198 -112.427223 220 5049ft 0kts
11-Apr-20 10:15 34.650197 -112.427224 220 5049ft 0kts
11-Apr-20 10:16 34.650196 -112.427225 220 5049ft 0kts
11-Apr-20 10:17 34.650195 -112.427226 220 5049ft 0kts
11-Apr-20 10:18 34.650194 -112.427227 220 5049ft 0kts
11-Apr-20 10:19 34.650194 -112.427228 220 5049ft 0kts
11-Apr-20 10:20 34.650193 -112.427229 220 5049ft 0kts
11-Apr-20 10:21 34.650192 -112.427230 220 5049ft 0kts
11-Apr-20 10:22 34.650191 -112.427231 220 5049ft 0kts
11-Apr-20 10:23 34.650190 -112.427232 220 5049ft 0kts
11-Apr-20 10:24 34.650189 -112.427233 220 5049ft 0kts
11-Apr-20 10:25 34.650188 -112.427234 220 5049ft 0kts
11-Apr-20 10:26 34.650187 -112.427235 220 5049ft 0kts
11-Apr-20 10:27 34.650186 -112.427236 220 5049ft 0kts
11-Apr-20 10:28 34.650377 -112.427146 178 5049ft 0kts
11-Apr-20 10:29 34.650122 -112.426916 140 5049ft 8kts
11-Apr-20 10:30 34.653311 -112.422702 41 5049ft 45kts
11-Apr-20 10:31 34.661557 -112.413887 45 5049ft 26kts
11-Apr-20 10:32 34.661721 -112.412805 131 5049ft 0kts
11-Apr-20 10:33 34.661719 -112.412803 131 5049ft 0kts
11-Apr-20 10:34 34.661718 -112.412801 131 5049ft 0kts
11-Apr-20 10:35 34.661715 -112.412797 131 5049ft 0kts
11-Apr-20 10:36 34.661689 -112.412760 129 5049ft 0kts
11-Apr-20 10:37 34.661688 -112.412759 129 5049ft 0kts
11-Apr-20 10:38 34.661024 -112.412559 215 5049ft 16kts
11-Apr-20 10:39 34.642390 -112.431313 195 6553ft 131kts
11-Apr-20 10:40 34.641994 -112.393527 84 9950ft 168kts
11-Apr-20 10:41 34.615191 -112.347518 138 12042ft 219kts
11-Apr-20 10:42 34.570067 -112.287582 132 11899ft 252kts
11-Apr-20 10:43 34.519103 -112.250501 218 12055ft 235kts
11-Apr-20 10:44 34.485575 -112.320238 227 11921ft 243kts
11-Apr-20 10:45 34.462235 -112.397250 260 11911ft 247kts
11-Apr-20 10:46 34.451737 -112.479080 270 11957ft 251kts
11-Apr-20 10:47 34.474962 -112.559424 286 12097ft 254kts
11-Apr-20 10:48 34.486328 -112.643834 281 11985ft 259kts
11-Apr-20 10:49 34.534681 -112.707794 318 11938ft 267kts
11-Apr-20 10:50 34.595589 -112.757906 336 12208ft 261kts
11-Apr-20 10:51 34.668100 -112.782187 352 11967ft 274kts
11-Apr-20 10:52 34.713601 -112.829900 270 12055ft 251kts
11-Apr-20 10:53 34.715565 -112.915319 265 11936ft 252kts
11-Apr-20 10:54 34.718234 -113.000742 268 11921ft 250kts
11-Apr-20 10:55 34.721699 -113.085388 267 11943ft 252kts
11-Apr-20 10:56 34.721653 -113.170031 264 11952ft 253kts
11-Apr-20 10:57 34.713200 -113.253662 254 11994ft 248kts
11-Apr-20 10:58 34.695122 -113.334150 246 12025ft 245kts
11-Apr-20 10:59 34.685016 -113.416487 267 12069ft 249kts
11-Apr-20 11:00 34.686383 -113.501680 270 12195ft 254kts
11-Apr-20 11:01 34.694675 -113.587823 272 12013ft 256kts
11-Apr-20 11:02 34.703955 -113.673281 273 11974ft 256kts
11-Apr-20 11:03 34.710989 -113.758430 271 12010ft 253kts
11-Apr-20 11:04 34.717506 -113.843671 270 11980ft 253kts
11-Apr-20 11:05 34.722087 -113.928782 270 12048ft 251kts
11-Apr-20 11:06 34.729686 -114.013897 270 12020ft 253kts
11-Apr-20 11:07 34.734193 -114.098929 273 12050ft 253kts
11-Apr-20 11:08 34.743399 -114.184294 271 11680ft 258kts
11-Apr-20 11:09 34.749168 -114.269382 272 10295ft 251kts
11-Apr-20 11:10 34.758058 -114.352547 274 9186ft 246kts
11-Apr-20 11:12 34.764739 -114.431524 266 7969ft 213kts
11-Apr-20 11:13 34.752985 -114.484529 176 7801ft 150kts
11-Apr-20 11:14 34.726149 -114.444918 150 7940ft 156kts
11-Apr-20 11:15 34.691046 -114.423407 166 7166ft 134kts
11-Apr-20 11:16 34.657328 -114.401723 158 5010ft 132kts
11-Apr-20 11:17 34.624375 -114.381569 166 2612ft 131kts
11-Apr-20 11:18 34.593140 -114.373354 156 1112ft 107kts
11-Apr-20 11:19 34.572015 -114.358873 152 787ft 29kts
11-Apr-20 11:20 34.569444 -114.357985 178 787ft 0kts
11-Apr-20 11:21 34.569234 -114.357974 175 787ft 0kts
11-Apr-20 11:22 34.569232 -114.357974 175 787ft 0kts
11-Apr-20 11:23 34.567470 -114.360138 207 787ft 11kts
11-Apr-20 11:24 34.567243 -114.359985 13 787ft 0kts
11-Apr-20 11:25 34.567244 -114.359984 13 787ft 0kts
11-Apr-20 11:26 34.567246 -114.359984 13 787ft 0kts
11-Apr-20 11:27 34.567247 -114.359983 13 787ft 0kts
11-Apr-20 11:28 34.567248 -114.359983 13 787ft 0kts
11-Apr-20 11:29 34.567250 -114.359983 13 787ft 0kts
11-Apr-20 11:30 34.567251 -114.359982 13 787ft 0kts
11-Apr-20 11:31 34.567253 -114.359982 13 787ft 0kts
11-Apr-20 11:31 34.567254 -114.359981 13 787ft 0kts
11-Apr-20 11:33 34.567256 -114.359981 13 787ft 0kts

Navigation Log

Ident Type
Flight plan parsing failed, navigation log unavailable